Time;durP1;ratioP1;P1;durP2;ratioP2;P2;SDS_P1;SDS_P2;PMS_P1;PMS_P2;Temp;Humidity;BMP_temperature;BMP_pressure;BME280_temperature;BME280_humidity;BME280_pressure;Samples;Min_cycle;Max_cycle;Signal;HPM_P1;HPM_P2
2021/01/30 00:00:13;;;;;;;1.25;0.95;;;;;;;5.25;100;93829.06;;;;
2021/01/30 00:01:15;;;;;;;1.25;0.95;;;;;;;5.25;100;93829.06;;;;
2021/01/30 00:02:16;;;;;;;1.25;0.95;;;;;;;5.25;100;93829.06;;;;
2021/01/30 00:03:16;;;;;;;1.25;0.95;;;;;;;5.25;100;93829.06;;;;
2021/01/30 00:04:17;;;;;;;1.25;0.95;;;;;;;5.25;100;93829.06;;;;
2021/01/30 00:05:17;;;;;;;1.9;1.1;;;;;;;5.29;100;93835.57;;;;
2021/01/30 00:06:18;;;;;;;1.9;1.1;;;;;;;5.29;100;93835.57;;;;
2021/01/30 00:07:18;;;;;;;1.9;1.1;;;;;;;5.29;100;93835.57;;;;
2021/01/30 00:08:19;;;;;;;1.9;1.1;;;;;;;5.29;100;93835.57;;;;
2021/01/30 00:09:19;;;;;;;1.9;1.1;;;;;;;5.29;100;93835.57;;;;
2021/01/30 00:10:21;;;;;;;1.9;1.1;;;;;;;5.29;100;93835.57;;;;
2021/01/30 00:11:23;;;;;;;1.9;1.1;;;;;;;5.29;100;93835.57;;;;
2021/01/30 00:12:23;;;;;;;1.9;1.1;;;;;;;5.29;100;93835.57;;;;
2021/01/30 00:13:24;;;;;;;1.9;1.1;;;;;;;5.29;100;93835.57;;;;
2021/01/30 00:14:24;;;;;;;1.9;1.1;;;;;;;5.29;100;93835.57;;;;
2021/01/30 00:15:28;;;;;;;1.7;1.1;;;;;;;5.41;100;93829.77;;;;
2021/01/30 00:16:29;;;;;;;1.7;1.1;;;;;;;5.41;100;93829.77;;;;
2021/01/30 00:17:29;;;;;;;1.7;1.1;;;;;;;5.41;100;93829.77;;;;
2021/01/30 00:18:30;;;;;;;1.7;1.1;;;;;;;5.41;100;93829.77;;;;
2021/01/30 00:19:30;;;;;;;1.7;1.1;;;;;;;5.41;100;93829.77;;;;
2021/01/30 00:20:32;;;;;;;1.7;1.1;;;;;;;5.41;100;93829.77;;;;
2021/01/30 00:21:35;;;;;;;1.7;1.1;;;;;;;5.41;100;93829.77;;;;
2021/01/30 00:22:36;;;;;;;1.7;1.1;;;;;;;5.41;100;93829.77;;;;
2021/01/30 00:23:36;;;;;;;1.7;1.1;;;;;;;5.41;100;93829.77;;;;
2021/01/30 00:24:42;;;;;;;1.7;1.1;;;;;;;5.41;100;93829.77;;;;
2021/01/30 00:25:43;;;;;;;1.7;1.1;;;;;;;5.41;100;93829.77;;;;
2021/01/30 00:26:44;;;;;;;1.95;1.3;;;;;;;5.44;100;93818.05;;;;
2021/01/30 00:27:49;;;;;;;1.95;1.3;;;;;;;5.44;100;93818.05;;;;
2021/01/30 00:28:51;;;;;;;1.95;1.3;;;;;;;5.44;100;93818.05;;;;
2021/01/30 00:29:51;;;;;;;1.95;1.3;;;;;;;5.44;100;93818.05;;;;
2021/01/30 00:30:52;;;;;;;1.95;1.3;;;;;;;5.44;100;93818.05;;;;
2021/01/30 00:31:53;;;;;;;1.95;1.3;;;;;;;5.44;100;93818.05;;;;
2021/01/30 00:32:53;;;;;;;1.95;1.3;;;;;;;5.44;100;93818.05;;;;
2021/01/30 00:33:54;;;;;;;1.95;1.3;;;;;;;5.44;100;93818.05;;;;
2021/01/30 00:34:55;;;;;;;1.95;1.3;;;;;;;5.44;100;93818.05;;;;
2021/01/30 00:35:55;;;;;;;1.95;1.3;;;;;;;5.44;100;93818.05;;;;
2021/01/30 00:36:56;;;;;;;1.25;1.05;;;;;;;5.47;100;93828.27;;;;
2021/01/30 00:38:05;;;;;;;1.25;1.05;;;;;;;5.47;100;93828.27;;;;
2021/01/30 00:39:06;;;;;;;1.25;1.05;;;;;;;5.47;100;93828.27;;;;
2021/01/30 00:40:07;;;;;;;1.25;1.05;;;;;;;5.47;100;93828.27;;;;
2021/01/30 00:41:09;;;;;;;1.25;1.05;;;;;;;5.47;100;93828.27;;;;
2021/01/30 00:42:09;;;;;;;1.25;1.05;;;;;;;5.47;100;93828.27;;;;
2021/01/30 00:43:12;;;;;;;1.25;1.05;;;;;;;5.47;100;93828.27;;;;
2021/01/30 00:44:12;;;;;;;1.25;1.05;;;;;;;5.47;100;93828.27;;;;
2021/01/30 00:45:14;;;;;;;1.25;1.05;;;;;;;5.47;100;93828.27;;;;
2021/01/30 00:46:18;;;;;;;1.25;1.05;;;;;;;5.47;100;93828.27;;;;
2021/01/30 00:47:18;;;;;;;1.6;1;;;;;;;5.5;100;93826.58;;;;
2021/01/30 00:48:19;;;;;;;1.6;1;;;;;;;5.5;100;93826.58;;;;
2021/01/30 00:49:20;;;;;;;1.6;1;;;;;;;5.5;100;93826.58;;;;
2021/01/30 00:50:20;;;;;;;1.6;1;;;;;;;5.5;100;93826.58;;;;
2021/01/30 00:51:21;;;;;;;1.6;1;;;;;;;5.5;100;93826.58;;;;
2021/01/30 00:52:24;;;;;;;1.6;1;;;;;;;5.5;100;93826.58;;;;
2021/01/30 00:53:24;;;;;;;1.6;1;;;;;;;5.5;100;93826.58;;;;
2021/01/30 00:54:25;;;;;;;1.6;1;;;;;;;5.5;100;93826.58;;;;
2021/01/30 00:55:25;;;;;;;1.6;1;;;;;;;5.5;100;93826.58;;;;
2021/01/30 00:56:26;;;;;;;1.6;1;;;;;;;5.5;100;93826.58;;;;
2021/01/30 00:57:26;;;;;;;1.6;1;;;;;;;5.5;100;93826.58;;;;
2021/01/30 00:58:27;;;;;;;1.4;1.2;;;;;;;5.55;100;93837.38;;;;
2021/01/30 00:59:27;;;;;;;1.4;1.2;;;;;;;5.55;100;93837.38;;;;
2021/01/30 01:00:28;;;;;;;1.4;1.2;;;;;;;5.55;100;93837.38;;;;
2021/01/30 01:01:29;;;;;;;1.4;1.2;;;;;;;5.55;100;93837.38;;;;
2021/01/30 01:02:35;;;;;;;1.4;1.2;;;;;;;5.55;100;93837.38;;;;
2021/01/30 01:03:36;;;;;;;1.4;1.2;;;;;;;5.55;100;93837.38;;;;
2021/01/30 01:04:37;;;;;;;1.4;1.2;;;;;;;5.55;100;93837.38;;;;
2021/01/30 01:05:38;;;;;;;1.4;1.2;;;;;;;5.55;100;93837.38;;;;
2021/01/30 01:06:39;;;;;;;1.4;1.2;;;;;;;5.55;100;93837.38;;;;
2021/01/30 01:07:39;;;;;;;1.4;1.2;;;;;;;5.55;100;93837.38;;;;
2021/01/30 01:08:42;;;;;;;1.2;1.1;;;;;;;5.55;100;93847.97;;;;
2021/01/30 01:09:42;;;;;;;1.2;1.1;;;;;;;5.55;100;93847.97;;;;
2021/01/30 01:10:43;;;;;;;1.2;1.1;;;;;;;5.55;100;93847.97;;;;
2021/01/30 01:11:44;;;;;;;1.2;1.1;;;;;;;5.55;100;93847.97;;;;
2021/01/30 01:12:48;;;;;;;1.2;1.1;;;;;;;5.55;100;93847.97;;;;
2021/01/30 01:13:48;;;;;;;1.2;1.1;;;;;;;5.55;100;93847.97;;;;
2021/01/30 01:14:49;;;;;;;1.2;1.1;;;;;;;5.55;100;93847.97;;;;
2021/01/30 01:15:50;;;;;;;1.2;1.1;;;;;;;5.55;100;93847.97;;;;
2021/01/30 01:16:50;;;;;;;1.2;1.1;;;;;;;5.55;100;93847.97;;;;
2021/01/30 01:17:51;;;;;;;1.2;1.1;;;;;;;5.55;100;93847.97;;;;
2021/01/30 01:18:51;;;;;;;1.2;1.1;;;;;;;5.55;100;93847.97;;;;
2021/01/30 01:19:52;;;;;;;1.3;1.2;;;;;;;5.47;100;93855.96;;;;
2021/01/30 01:20:52;;;;;;;1.3;1.2;;;;;;;5.47;100;93855.96;;;;
2021/01/30 01:21:53;;;;;;;1.3;1.2;;;;;;;5.47;100;93855.96;;;;
2021/01/30 01:22:54;;;;;;;1.3;1.2;;;;;;;5.47;100;93855.96;;;;
2021/01/30 01:23:54;;;;;;;1.3;1.2;;;;;;;5.47;100;93855.96;;;;
2021/01/30 01:24:55;;;;;;;1.3;1.2;;;;;;;5.47;100;93855.96;;;;
2021/01/30 01:25:55;;;;;;;1.3;1.2;;;;;;;5.47;100;93855.96;;;;
2021/01/30 01:26:56;;;;;;;1.3;1.2;;;;;;;5.47;100;93855.96;;;;
2021/01/30 01:27:56;;;;;;;1.3;1.2;;;;;;;5.47;100;93855.96;;;;
2021/01/30 01:28:57;;;;;;;1.3;1.2;;;;;;;5.47;100;93855.96;;;;
2021/01/30 01:29:59;;;;;;;2.2;1.15;;;;;;;5.41;100;93870.32;;;;
2021/01/30 01:30:59;;;;;;;2.2;1.15;;;;;;;5.41;100;93870.32;;;;
2021/01/30 01:32:00;;;;;;;2.2;1.15;;;;;;;5.41;100;93870.32;;;;
2021/01/30 01:33:01;;;;;;;2.2;1.15;;;;;;;5.41;100;93870.32;;;;
2021/01/30 01:34:03;;;;;;;2.2;1.15;;;;;;;5.41;100;93870.32;;;;
2021/01/30 01:35:04;;;;;;;2.2;1.15;;;;;;;5.41;100;93870.32;;;;
2021/01/30 01:36:06;;;;;;;2.2;1.15;;;;;;;5.41;100;93870.32;;;;
2021/01/30 01:37:08;;;;;;;2.2;1.15;;;;;;;5.41;100;93870.32;;;;
2021/01/30 01:38:08;;;;;;;2.2;1.15;;;;;;;5.41;100;93870.32;;;;
2021/01/30 01:39:09;;;;;;;2.2;1.15;;;;;;;5.41;100;93870.32;;;;
2021/01/30 01:40:10;;;;;;;2.2;1.15;;;;;;;5.41;100;93870.32;;;;
2021/01/30 01:41:12;;;;;;;1.55;1.25;;;;;;;5.43;100;93882.12;;;;
2021/01/30 01:42:13;;;;;;;1.55;1.25;;;;;;;5.43;100;93882.12;;;;
2021/01/30 01:43:18;;;;;;;1.55;1.25;;;;;;;5.43;100;93882.12;;;;
2021/01/30 01:44:22;;;;;;;1.55;1.25;;;;;;;5.43;100;93882.12;;;;
2021/01/30 01:45:23;;;;;;;1.55;1.25;;;;;;;5.43;100;93882.12;;;;
2021/01/30 01:46:23;;;;;;;1.55;1.25;;;;;;;5.43;100;93882.12;;;;
2021/01/30 01:47:29;;;;;;;1.55;1.25;;;;;;;5.43;100;93882.12;;;;
2021/01/30 01:48:34;;;;;;;1.55;1.25;;;;;;;5.43;100;93882.12;;;;
2021/01/30 01:49:39;;;;;;;1.55;1.25;;;;;;;5.43;100;93882.12;;;;
2021/01/30 01:50:42;;;;;;;1.55;1.25;;;;;;;5.43;100;93882.12;;;;
2021/01/30 01:51:45;;;;;;;2.7;1;;;;;;;5.53;100;93884.05;;;;
2021/01/30 01:52:53;;;;;;;2.7;1;;;;;;;5.53;100;93884.05;;;;
2021/01/30 01:53:59;;;;;;;2.7;1;;;;;;;5.53;100;93884.05;;;;
2021/01/30 01:55:04;;;;;;;2.7;1;;;;;;;5.53;100;93884.05;;;;
2021/01/30 01:56:09;;;;;;;2.7;1;;;;;;;5.53;100;93884.05;;;;
2021/01/30 01:57:15;;;;;;;2.7;1;;;;;;;5.53;100;93884.05;;;;
2021/01/30 01:58:16;;;;;;;2.7;1;;;;;;;5.53;100;93884.05;;;;
2021/01/30 01:59:19;;;;;;;2.7;1;;;;;;;5.53;100;93884.05;;;;
2021/01/30 02:00:20;;;;;;;2.7;1;;;;;;;5.53;100;93884.05;;;;
2021/01/30 02:01:23;;;;;;;2.7;1;;;;;;;5.53;100;93884.05;;;;
2021/01/30 02:02:24;;;;;;;1.6;1.2;;;;;;;5.61;100;93891.3;;;;
2021/01/30 02:03:29;;;;;;;1.6;1.2;;;;;;;5.61;100;93891.3;;;;
2021/01/30 02:04:32;;;;;;;1.6;1.2;;;;;;;5.61;100;93891.3;;;;
2021/01/30 02:05:33;;;;;;;1.6;1.2;;;;;;;5.61;100;93891.3;;;;
2021/01/30 02:06:37;;;;;;;1.6;1.2;;;;;;;5.61;100;93891.3;;;;
2021/01/30 02:07:41;;;;;;;1.6;1.2;;;;;;;5.61;100;93891.3;;;;
2021/01/30 02:08:44;;;;;;;1.6;1.2;;;;;;;5.61;100;93891.3;;;;
2021/01/30 02:09:45;;;;;;;1.6;1.2;;;;;;;5.61;100;93891.3;;;;
2021/01/30 02:10:46;;;;;;;1.6;1.2;;;;;;;5.61;100;93891.3;;;;
2021/01/30 02:11:49;;;;;;;1.6;1.2;;;;;;;5.61;100;93891.3;;;;
2021/01/30 02:12:58;;;;;;;1.8;1.3;;;;;;;5.59;100;93896.08;;;;
2021/01/30 02:14:06;;;;;;;1.8;1.3;;;;;;;5.59;100;93896.08;;;;
2021/01/30 02:15:09;;;;;;;1.8;1.3;;;;;;;5.59;100;93896.08;;;;
2021/01/30 02:16:11;;;;;;;1.8;1.3;;;;;;;5.59;100;93896.08;;;;
2021/01/30 02:17:29;;;;;;;1.8;1.3;;;;;;;5.59;100;93896.08;;;;
2021/01/30 02:18:37;;;;;;;1.8;1.3;;;;;;;5.59;100;93896.08;;;;
2021/01/30 02:19:51;;;;;;;1.8;1.3;;;;;;;5.59;100;93896.08;;;;
2021/01/30 02:25:17;;;;;;;1.9;1.1;;;;;;;5.54;100;93911.91;;;;
2021/01/30 02:26:57;;;;;;;1.9;1.1;;;;;;;5.54;100;93911.91;;;;
2021/01/30 02:29:13;;;;;;;1.9;1.1;;;;;;;5.54;100;93911.91;;;;
2021/01/30 02:30:40;;;;;;;1.9;1.1;;;;;;;5.54;100;93911.91;;;;
2021/01/30 02:33:06;;;;;;;1.9;1.1;;;;;;;5.54;100;93911.91;;;;
2021/01/30 02:34:45;;;;;;;1.7;1.15;;;;;;;5.48;100;93895.48;;;;
2021/01/30 02:35:58;;;;;;;1.7;1.15;;;;;;;5.48;100;93895.48;;;;
2021/01/30 02:37:23;;;;;;;1.7;1.15;;;;;;;5.48;100;93895.48;;;;
2021/01/30 02:38:29;;;;;;;1.7;1.15;;;;;;;5.48;100;93895.48;;;;
2021/01/30 02:39:34;;;;;;;1.7;1.15;;;;;;;5.48;100;93895.48;;;;
2021/01/30 02:40:43;;;;;;;1.7;1.15;;;;;;;5.48;100;93895.48;;;;
2021/01/30 02:41:48;;;;;;;1.7;1.15;;;;;;;5.48;100;93895.48;;;;
2021/01/30 02:42:54;;;;;;;1.7;1.15;;;;;;;5.48;100;93895.48;;;;
2021/01/30 02:44:00;;;;;;;1.7;1.15;;;;;;;5.48;100;93895.48;;;;
2021/01/30 02:45:04;;;;;;;1.8;0.95;;;;;;;5.43;100;93909.3;;;;
2021/01/30 02:46:09;;;;;;;1.8;0.95;;;;;;;5.43;100;93909.3;;;;
2021/01/30 02:47:14;;;;;;;1.8;0.95;;;;;;;5.43;100;93909.3;;;;
2021/01/30 02:48:17;;;;;;;1.8;0.95;;;;;;;5.43;100;93909.3;;;;
2021/01/30 02:49:23;;;;;;;1.8;0.95;;;;;;;5.43;100;93909.3;;;;
2021/01/30 02:50:29;;;;;;;1.8;0.95;;;;;;;5.43;100;93909.3;;;;
2021/01/30 02:51:35;;;;;;;1.8;0.95;;;;;;;5.43;100;93909.3;;;;
2021/01/30 02:52:41;;;;;;;1.8;0.95;;;;;;;5.43;100;93909.3;;;;
2021/01/30 02:53:45;;;;;;;1.8;0.95;;;;;;;5.43;100;93909.3;;;;
2021/01/30 02:54:50;;;;;;;1.8;0.95;;;;;;;5.43;100;93909.3;;;;
2021/01/30 02:55:54;;;;;;;1.2;0.9;;;;;;;5.38;100;93912.67;;;;
2021/01/30 02:56:58;;;;;;;1.2;0.9;;;;;;;5.38;100;93912.67;;;;
2021/01/30 02:57:59;;;;;;;1.2;0.9;;;;;;;5.38;100;93912.67;;;;
2021/01/30 02:59:01;;;;;;;1.2;0.9;;;;;;;5.38;100;93912.67;;;;
2021/01/30 03:00:06;;;;;;;1.2;0.9;;;;;;;5.38;100;93912.67;;;;
2021/01/30 03:01:12;;;;;;;1.2;0.9;;;;;;;5.38;100;93912.67;;;;
2021/01/30 03:02:13;;;;;;;1.2;0.9;;;;;;;5.38;100;93912.67;;;;
2021/01/30 03:03:14;;;;;;;1.2;0.9;;;;;;;5.38;100;93912.67;;;;
2021/01/30 03:04:14;;;;;;;1.2;0.9;;;;;;;5.38;100;93912.67;;;;
2021/01/30 03:05:20;;;;;;;1.2;0.9;;;;;;;5.38;100;93912.67;;;;
2021/01/30 03:06:22;;;;;;;1.4;0.95;;;;;;;5.32;100;93905.2;;;;
2021/01/30 03:07:31;;;;;;;1.4;0.95;;;;;;;5.32;100;93905.2;;;;
2021/01/30 03:08:43;;;;;;;1.4;0.95;;;;;;;5.32;100;93905.2;;;;
2021/01/30 03:09:48;;;;;;;1.4;0.95;;;;;;;5.32;100;93905.2;;;;
2021/01/30 03:11:07;;;;;;;1.4;0.95;;;;;;;5.32;100;93905.2;;;;
2021/01/30 03:12:14;;;;;;;1.4;0.95;;;;;;;5.32;100;93905.2;;;;
2021/01/30 03:13:26;;;;;;;1.4;0.95;;;;;;;5.32;100;93905.2;;;;
2021/01/30 03:14:33;;;;;;;1.4;0.95;;;;;;;5.32;100;93905.2;;;;
2021/01/30 03:15:40;;;;;;;1.4;0.95;;;;;;;5.32;100;93905.2;;;;
2021/01/30 03:16:45;;;;;;;1.65;1.2;;;;;;;5.24;100;93905.15;;;;
2021/01/30 03:17:47;;;;;;;1.65;1.2;;;;;;;5.24;100;93905.15;;;;
2021/01/30 03:18:51;;;;;;;1.65;1.2;;;;;;;5.24;100;93905.15;;;;
2021/01/30 03:19:55;;;;;;;1.65;1.2;;;;;;;5.24;100;93905.15;;;;
2021/01/30 03:20:58;;;;;;;1.65;1.2;;;;;;;5.24;100;93905.15;;;;
2021/01/30 03:22:00;;;;;;;1.65;1.2;;;;;;;5.24;100;93905.15;;;;
2021/01/30 03:23:06;;;;;;;1.65;1.2;;;;;;;5.24;100;93905.15;;;;
2021/01/30 03:24:08;;;;;;;1.65;1.2;;;;;;;5.24;100;93905.15;;;;
2021/01/30 03:25:09;;;;;;;1.65;1.2;;;;;;;5.24;100;93905.15;;;;
2021/01/30 03:26:14;;;;;;;1.65;1.2;;;;;;;5.24;100;93905.15;;;;
2021/01/30 03:27:17;;;;;;;1.65;1.2;;;;;;;5.24;100;93905.15;;;;
2021/01/30 03:28:20;;;;;;;1.4;1.1;;;;;;;5.18;100;93896.2;;;;
2021/01/30 03:29:20;;;;;;;1.4;1.1;;;;;;;5.18;100;93896.2;;;;
2021/01/30 03:30:21;;;;;;;1.4;1.1;;;;;;;5.18;100;93896.2;;;;
2021/01/30 03:31:22;;;;;;;1.4;1.1;;;;;;;5.18;100;93896.2;;;;
2021/01/30 03:32:24;;;;;;;1.4;1.1;;;;;;;5.18;100;93896.2;;;;
2021/01/30 03:33:26;;;;;;;1.4;1.1;;;;;;;5.18;100;93896.2;;;;
2021/01/30 03:34:27;;;;;;;1.4;1.1;;;;;;;5.18;100;93896.2;;;;
2021/01/30 03:35:27;;;;;;;1.4;1.1;;;;;;;5.18;100;93896.2;;;;
2021/01/30 03:36:28;;;;;;;1.4;1.1;;;;;;;5.18;100;93896.2;;;;
2021/01/30 03:37:28;;;;;;;1.4;1.1;;;;;;;5.18;100;93896.2;;;;
2021/01/30 03:38:30;;;;;;;2;1.05;;;;;;;5.18;100;93902.1;;;;
2021/01/30 03:39:30;;;;;;;2;1.05;;;;;;;5.18;100;93902.1;;;;
2021/01/30 03:40:31;;;;;;;2;1.05;;;;;;;5.18;100;93902.1;;;;
2021/01/30 03:41:32;;;;;;;2;1.05;;;;;;;5.18;100;93902.1;;;;
2021/01/30 03:42:32;;;;;;;2;1.05;;;;;;;5.18;100;93902.1;;;;
2021/01/30 03:43:33;;;;;;;2;1.05;;;;;;;5.18;100;93902.1;;;;
2021/01/30 03:44:34;;;;;;;2;1.05;;;;;;;5.18;100;93902.1;;;;
2021/01/30 03:45:34;;;;;;;2;1.05;;;;;;;5.18;100;93902.1;;;;
2021/01/30 03:46:35;;;;;;;2;1.05;;;;;;;5.18;100;93902.1;;;;
2021/01/30 03:47:35;;;;;;;2;1.05;;;;;;;5.18;100;93902.1;;;;
2021/01/30 03:48:36;;;;;;;2;1.05;;;;;;;5.18;100;93902.1;;;;
2021/01/30 03:49:36;;;;;;;1.5;1;;;;;;;5.1;100;93895.25;;;;
2021/01/30 03:50:37;;;;;;;1.5;1;;;;;;;5.1;100;93895.25;;;;
2021/01/30 03:51:38;;;;;;;1.5;1;;;;;;;5.1;100;93895.25;;;;
2021/01/30 03:52:38;;;;;;;1.5;1;;;;;;;5.1;100;93895.25;;;;
2021/01/30 03:53:39;;;;;;;1.5;1;;;;;;;5.1;100;93895.25;;;;
2021/01/30 03:54:39;;;;;;;1.5;1;;;;;;;5.1;100;93895.25;;;;
2021/01/30 03:55:40;;;;;;;1.5;1;;;;;;;5.1;100;93895.25;;;;
2021/01/30 03:56:41;;;;;;;1.5;1;;;;;;;5.1;100;93895.25;;;;
2021/01/30 03:57:42;;;;;;;1.5;1;;;;;;;5.1;100;93895.25;;;;
2021/01/30 03:58:45;;;;;;;1.5;1;;;;;;;5.1;100;93895.25;;;;
2021/01/30 03:59:45;;;;;;;2.2;1.1;;;;;;;5.07;100;93916.72;;;;
2021/01/30 04:00:46;;;;;;;2.2;1.1;;;;;;;5.07;100;93916.72;;;;
2021/01/30 04:01:46;;;;;;;2.2;1.1;;;;;;;5.07;100;93916.72;;;;
2021/01/30 04:02:47;;;;;;;2.2;1.1;;;;;;;5.07;100;93916.72;;;;
2021/01/30 04:03:49;;;;;;;2.2;1.1;;;;;;;5.07;100;93916.72;;;;
2021/01/30 04:04:49;;;;;;;2.2;1.1;;;;;;;5.07;100;93916.72;;;;
2021/01/30 04:05:49;;;;;;;2.2;1.1;;;;;;;5.07;100;93916.72;;;;
2021/01/30 04:06:50;;;;;;;2.2;1.1;;;;;;;5.07;100;93916.72;;;;
2021/01/30 04:07:52;;;;;;;2.2;1.1;;;;;;;5.07;100;93916.72;;;;
2021/01/30 04:08:55;;;;;;;2.2;1.1;;;;;;;5.07;100;93916.72;;;;
2021/01/30 04:09:56;;;;;;;2.2;1.1;;;;;;;5.07;100;93916.72;;;;
2021/01/30 04:10:56;;;;;;;1.85;1.1;;;;;;;5.14;100;93911.13;;;;
2021/01/30 04:11:57;;;;;;;1.85;1.1;;;;;;;5.14;100;93911.13;;;;
2021/01/30 04:12:57;;;;;;;1.85;1.1;;;;;;;5.14;100;93911.13;;;;
2021/01/30 04:13:59;;;;;;;1.85;1.1;;;;;;;5.14;100;93911.13;;;;
2021/01/30 04:15:00;;;;;;;1.85;1.1;;;;;;;5.14;100;93911.13;;;;
2021/01/30 04:16:01;;;;;;;1.85;1.1;;;;;;;5.14;100;93911.13;;;;
2021/01/30 04:17:02;;;;;;;1.85;1.1;;;;;;;5.14;100;93911.13;;;;
2021/01/30 04:18:03;;;;;;;1.85;1.1;;;;;;;5.14;100;93911.13;;;;
2021/01/30 04:19:04;;;;;;;1.85;1.1;;;;;;;5.14;100;93911.13;;;;
2021/01/30 04:20:05;;;;;;;1.85;1.1;;;;;;;5.14;100;93911.13;;;;
2021/01/30 04:21:07;;;;;;;2.8;1.15;;;;;;;5.18;100;93895.4;;;;
2021/01/30 04:22:07;;;;;;;2.8;1.15;;;;;;;5.18;100;93895.4;;;;
2021/01/30 04:23:08;;;;;;;2.8;1.15;;;;;;;5.18;100;93895.4;;;;
2021/01/30 04:24:10;;;;;;;2.8;1.15;;;;;;;5.18;100;93895.4;;;;
2021/01/30 04:25:11;;;;;;;2.8;1.15;;;;;;;5.18;100;93895.4;;;;
2021/01/30 04:26:13;;;;;;;2.8;1.15;;;;;;;5.18;100;93895.4;;;;
2021/01/30 04:27:15;;;;;;;2.8;1.15;;;;;;;5.18;100;93895.4;;;;
2021/01/30 04:28:16;;;;;;;2.8;1.15;;;;;;;5.18;100;93895.4;;;;
2021/01/30 04:29:16;;;;;;;2.8;1.15;;;;;;;5.18;100;93895.4;;;;
2021/01/30 04:30:17;;;;;;;2.8;1.15;;;;;;;5.18;100;93895.4;;;;
2021/01/30 04:31:22;;;;;;;2.8;1.15;;;;;;;5.18;100;93895.4;;;;
2021/01/30 04:32:23;;;;;;;1.65;0.95;;;;;;;5.13;100;93885.41;;;;
2021/01/30 04:33:24;;;;;;;1.65;0.95;;;;;;;5.13;100;93885.41;;;;
2021/01/30 04:34:24;;;;;;;1.65;0.95;;;;;;;5.13;100;93885.41;;;;
2021/01/30 04:35:25;;;;;;;1.65;0.95;;;;;;;5.13;100;93885.41;;;;
2021/01/30 04:36:28;;;;;;;1.65;0.95;;;;;;;5.13;100;93885.41;;;;
2021/01/30 04:37:29;;;;;;;1.65;0.95;;;;;;;5.13;100;93885.41;;;;
2021/01/30 04:38:29;;;;;;;1.65;0.95;;;;;;;5.13;100;93885.41;;;;
2021/01/30 04:39:30;;;;;;;1.65;0.95;;;;;;;5.13;100;93885.41;;;;
2021/01/30 04:40:30;;;;;;;1.65;0.95;;;;;;;5.13;100;93885.41;;;;
2021/01/30 04:41:35;;;;;;;1.65;0.95;;;;;;;5.13;100;93885.41;;;;
2021/01/30 04:42:47;;;;;;;4.35;1.35;;;;;;;5.05;100;93883.52;;;;
2021/01/30 04:43:55;;;;;;;4.35;1.35;;;;;;;5.05;100;93883.52;;;;
2021/01/30 04:45:01;;;;;;;4.35;1.35;;;;;;;5.05;100;93883.52;;;;
2021/01/30 04:46:09;;;;;;;4.35;1.35;;;;;;;5.05;100;93883.52;;;;
2021/01/30 04:47:15;;;;;;;4.35;1.35;;;;;;;5.05;100;93883.52;;;;
2021/01/30 04:48:31;;;;;;;4.35;1.35;;;;;;;5.05;100;93883.52;;;;
2021/01/30 04:49:44;;;;;;;4.35;1.35;;;;;;;5.05;100;93883.52;;;;
2021/01/30 04:50:50;;;;;;;4.35;1.35;;;;;;;5.05;100;93883.52;;;;
2021/01/30 04:51:58;;;;;;;4.35;1.35;;;;;;;5.05;100;93883.52;;;;
2021/01/30 04:53:04;;;;;;;3.15;1.05;;;;;;;5.05;100;93874.16;;;;
2021/01/30 04:54:15;;;;;;;3.15;1.05;;;;;;;5.05;100;93874.16;;;;
2021/01/30 04:55:35;;;;;;;3.15;1.05;;;;;;;5.05;100;93874.16;;;;
2021/01/30 04:56:47;;;;;;;3.15;1.05;;;;;;;5.05;100;93874.16;;;;
2021/01/30 04:58:03;;;;;;;3.15;1.05;;;;;;;5.05;100;93874.16;;;;
2021/01/30 04:59:13;;;;;;;3.15;1.05;;;;;;;5.05;100;93874.16;;;;
2021/01/30 05:00:24;;;;;;;3.15;1.05;;;;;;;5.05;100;93874.16;;;;
2021/01/30 05:01:35;;;;;;;3.15;1.05;;;;;;;5.05;100;93874.16;;;;
2021/01/30 05:02:44;;;;;;;3.15;1.05;;;;;;;5.05;100;93874.16;;;;
2021/01/30 05:03:56;;;;;;;4.499999;1.4;;;;;;;5.1;100;93865.41;;;;
2021/01/30 05:05:04;;;;;;;4.499999;1.4;;;;;;;5.1;100;93865.41;;;;
2021/01/30 05:06:09;;;;;;;4.499999;1.4;;;;;;;5.1;100;93865.41;;;;
2021/01/30 05:07:15;;;;;;;4.499999;1.4;;;;;;;5.1;100;93865.41;;;;
2021/01/30 05:08:23;;;;;;;4.499999;1.4;;;;;;;5.1;100;93865.41;;;;
2021/01/30 05:09:32;;;;;;;4.499999;1.4;;;;;;;5.1;100;93865.41;;;;
2021/01/30 05:10:40;;;;;;;4.499999;1.4;;;;;;;5.1;100;93865.41;;;;
2021/01/30 05:11:43;;;;;;;4.499999;1.4;;;;;;;5.1;100;93865.41;;;;
2021/01/30 05:12:53;;;;;;;4.499999;1.4;;;;;;;5.1;100;93865.41;;;;
2021/01/30 05:13:58;;;;;;;4.499999;1.4;;;;;;;5.1;100;93865.41;;;;
2021/01/30 05:15:06;;;;;;;6.8;1.5;;;;;;;5.24;100;93875.72;;;;
2021/01/30 05:16:13;;;;;;;6.8;1.5;;;;;;;5.24;100;93875.72;;;;
2021/01/30 05:17:20;;;;;;;6.8;1.5;;;;;;;5.24;100;93875.72;;;;
2021/01/30 05:18:27;;;;;;;6.8;1.5;;;;;;;5.24;100;93875.72;;;;
2021/01/30 05:19:31;;;;;;;6.8;1.5;;;;;;;5.24;100;93875.72;;;;
2021/01/30 05:20:36;;;;;;;6.8;1.5;;;;;;;5.24;100;93875.72;;;;
2021/01/30 05:21:41;;;;;;;6.8;1.5;;;;;;;5.24;100;93875.72;;;;
2021/01/30 05:22:46;;;;;;;6.8;1.5;;;;;;;5.24;100;93875.72;;;;
2021/01/30 05:23:47;;;;;;;6.8;1.5;;;;;;;5.24;100;93875.72;;;;
2021/01/30 05:24:50;;;;;;;3.3;1.4;;;;;;;5.32;100;93864.14;;;;
2021/01/30 05:25:52;;;;;;;3.3;1.4;;;;;;;5.32;100;93864.14;;;;
2021/01/30 05:27:00;;;;;;;3.3;1.4;;;;;;;5.32;100;93864.14;;;;
2021/01/30 05:28:48;;;;;;;3.3;1.4;;;;;;;5.32;100;93864.14;;;;
2021/01/30 05:30:01;;;;;;;3.3;1.4;;;;;;;5.32;100;93864.14;;;;
2021/01/30 05:31:08;;;;;;;3.3;1.4;;;;;;;5.32;100;93864.14;;;;
2021/01/30 05:32:22;;;;;;;3.3;1.4;;;;;;;5.32;100;93864.14;;;;
2021/01/30 05:33:31;;;;;;;3.3;1.4;;;;;;;5.32;100;93864.14;;;;
2021/01/30 05:34:51;;;;;;;3.3;1.4;;;;;;;5.32;100;93864.14;;;;
2021/01/30 05:35:56;;;;;;;6.200001;1.4;;;;;;;5.35;100;93849.44;;;;
2021/01/30 05:37:05;;;;;;;6.200001;1.4;;;;;;;5.35;100;93849.44;;;;
2021/01/30 05:38:11;;;;;;;6.200001;1.4;;;;;;;5.35;100;93849.44;;;;
2021/01/30 05:39:25;;;;;;;6.200001;1.4;;;;;;;5.35;100;93849.44;;;;
2021/01/30 05:40:42;;;;;;;6.200001;1.4;;;;;;;5.35;100;93849.44;;;;
2021/01/30 05:41:47;;;;;;;6.200001;1.4;;;;;;;5.35;100;93849.44;;;;
2021/01/30 05:42:56;;;;;;;6.200001;1.4;;;;;;;5.35;100;93849.44;;;;
2021/01/30 05:44:07;;;;;;;6.200001;1.4;;;;;;;5.35;100;93849.44;;;;
2021/01/30 05:45:12;;;;;;;6.200001;1.4;;;;;;;5.35;100;93849.44;;;;
2021/01/30 05:46:22;;;;;;;3.55;1.25;;;;;;;5.3;100;93835.46;;;;
2021/01/30 05:47:28;;;;;;;3.55;1.25;;;;;;;5.3;100;93835.46;;;;
2021/01/30 05:48:31;;;;;;;3.55;1.25;;;;;;;5.3;100;93835.46;;;;
2021/01/30 05:49:37;;;;;;;3.55;1.25;;;;;;;5.3;100;93835.46;;;;
2021/01/30 05:50:49;;;;;;;3.55;1.25;;;;;;;5.3;100;93835.46;;;;
2021/01/30 05:52:07;;;;;;;3.55;1.25;;;;;;;5.3;100;93835.46;;;;
2021/01/30 05:53:14;;;;;;;3.55;1.25;;;;;;;5.3;100;93835.46;;;;
2021/01/30 05:54:20;;;;;;;3.55;1.25;;;;;;;5.3;100;93835.46;;;;
2021/01/30 05:55:20;;;;;;;3.55;1.25;;;;;;;5.3;100;93835.46;;;;
2021/01/30 05:56:25;;;;;;;3.55;1.25;;;;;;;5.3;100;93835.46;;;;
2021/01/30 05:57:26;;;;;;;3.2;1.45;;;;;;;5.21;100;93829.38;;;;
2021/01/30 05:58:26;;;;;;;3.2;1.45;;;;;;;5.21;100;93829.38;;;;
2021/01/30 05:59:27;;;;;;;3.2;1.45;;;;;;;5.21;100;93829.38;;;;
2021/01/30 06:00:31;;;;;;;3.2;1.45;;;;;;;5.21;100;93829.38;;;;
2021/01/30 06:01:32;;;;;;;3.2;1.45;;;;;;;5.21;100;93829.38;;;;
2021/01/30 06:02:32;;;;;;;3.2;1.45;;;;;;;5.21;100;93829.38;;;;
2021/01/30 06:03:33;;;;;;;3.2;1.45;;;;;;;5.21;100;93829.38;;;;
2021/01/30 06:04:53;;;;;;;3.2;1.45;;;;;;;5.21;100;93829.38;;;;
2021/01/30 06:05:53;;;;;;;3.2;1.45;;;;;;;5.21;100;93829.38;;;;
2021/01/30 06:07:09;;;;;;;3.2;1.45;;;;;;;5.21;100;93829.38;;;;
2021/01/30 06:08:24;;;;;;;5.4;1.5;;;;;;;5.08;100;93826.87;;;;
2021/01/30 06:09:28;;;;;;;5.4;1.5;;;;;;;5.08;100;93826.87;;;;
2021/01/30 06:10:34;;;;;;;5.4;1.5;;;;;;;5.08;100;93826.87;;;;
2021/01/30 06:11:35;;;;;;;5.4;1.5;;;;;;;5.08;100;93826.87;;;;
2021/01/30 06:12:46;;;;;;;5.4;1.5;;;;;;;5.08;100;93826.87;;;;
2021/01/30 06:13:47;;;;;;;5.4;1.5;;;;;;;5.08;100;93826.87;;;;
2021/01/30 06:14:54;;;;;;;5.4;1.5;;;;;;;5.08;100;93826.87;;;;
2021/01/30 06:16:05;;;;;;;5.4;1.5;;;;;;;5.08;100;93826.87;;;;
2021/01/30 06:17:07;;;;;;;5.4;1.5;;;;;;;5.08;100;93826.87;;;;
2021/01/30 06:18:15;;;;;;;5.4;1.5;;;;;;;5.08;100;93826.87;;;;
2021/01/30 06:19:24;;;;;;;5.6;1.5;;;;;;;4.92;100;93831.63;;;;
2021/01/30 06:20:28;;;;;;;5.6;1.5;;;;;;;4.92;100;93831.63;;;;
2021/01/30 06:21:28;;;;;;;5.6;1.5;;;;;;;4.92;100;93831.63;;;;
2021/01/30 06:22:29;;;;;;;5.6;1.5;;;;;;;4.92;100;93831.63;;;;
2021/01/30 06:23:29;;;;;;;5.6;1.5;;;;;;;4.92;100;93831.63;;;;
2021/01/30 06:24:32;;;;;;;5.6;1.5;;;;;;;4.92;100;93831.63;;;;
2021/01/30 06:25:33;;;;;;;5.6;1.5;;;;;;;4.92;100;93831.63;;;;
2021/01/30 06:26:37;;;;;;;5.6;1.5;;;;;;;4.92;100;93831.63;;;;
2021/01/30 06:27:42;;;;;;;5.6;1.5;;;;;;;4.92;100;93831.63;;;;
2021/01/30 06:28:43;;;;;;;5.6;1.5;;;;;;;4.92;100;93831.63;;;;
2021/01/30 06:29:48;;;;;;;7.25;1.6;;;;;;;4.91;100;93833.59;;;;
2021/01/30 06:30:51;;;;;;;7.25;1.6;;;;;;;4.91;100;93833.59;;;;
2021/01/30 06:31:55;;;;;;;7.25;1.6;;;;;;;4.91;100;93833.59;;;;
2021/01/30 06:33:05;;;;;;;7.25;1.6;;;;;;;4.91;100;93833.59;;;;
2021/01/30 06:34:23;;;;;;;7.25;1.6;;;;;;;4.91;100;93833.59;;;;
2021/01/30 06:35:30;;;;;;;7.25;1.6;;;;;;;4.91;100;93833.59;;;;
2021/01/30 06:36:35;;;;;;;7.25;1.6;;;;;;;4.91;100;93833.59;;;;
2021/01/30 06:37:36;;;;;;;7.25;1.6;;;;;;;4.91;100;93833.59;;;;
2021/01/30 06:38:43;;;;;;;7.25;1.6;;;;;;;4.91;100;93833.59;;;;
2021/01/30 06:39:49;;;;;;;4.15;1.5;;;;;;;4.95;100;93817.36;;;;
2021/01/30 06:40:49;;;;;;;4.15;1.5;;;;;;;4.95;100;93817.36;;;;
2021/01/30 06:41:53;;;;;;;4.15;1.5;;;;;;;4.95;100;93817.36;;;;
2021/01/30 06:42:56;;;;;;;4.15;1.5;;;;;;;4.95;100;93817.36;;;;
2021/01/30 06:44:05;;;;;;;4.15;1.5;;;;;;;4.95;100;93817.36;;;;
2021/01/30 06:45:15;;;;;;;4.15;1.5;;;;;;;4.95;100;93817.36;;;;
2021/01/30 06:46:26;;;;;;;4.15;1.5;;;;;;;4.95;100;93817.36;;;;
2021/01/30 06:47:27;;;;;;;4.15;1.5;;;;;;;4.95;100;93817.36;;;;
2021/01/30 06:48:28;;;;;;;4.15;1.5;;;;;;;4.95;100;93817.36;;;;
2021/01/30 06:49:31;;;;;;;4.15;1.5;;;;;;;4.95;100;93817.36;;;;
2021/01/30 06:50:34;;;;;;;3.65;1.5;;;;;;;4.99;100;93813.59;;;;
2021/01/30 06:51:39;;;;;;;3.65;1.5;;;;;;;4.99;100;93813.59;;;;
2021/01/30 06:52:39;;;;;;;3.65;1.5;;;;;;;4.99;100;93813.59;;;;
2021/01/30 06:53:39;;;;;;;3.65;1.5;;;;;;;4.99;100;93813.59;;;;